Huntley, Illinois
Current Conditions -  °F | °C
As of 7:52 AM on Saturday 25 Oct 2014 (Local Time) from KDPA Reporting Station
Haze Haze  
Wind Chill: 53°   Ceiling: Unl
Heat Index: 53°   Visibility: 2mi
Dew Point: 52°   Wind: 3mph
Humidity: 96%   Direction: 230°SW
Pressure: 29.92"   Gusts: NA
Location:  42.17°N, 88.43°W
Report Text: KDPA 251252Z 23003KT 2SM BR CLR 12/11 A2992 RMK AO2 SLP133 T01170111
Loading
Personal Weather Stations






























Interactive Weather Map
Tropical Storm Tracking
New forecast layout! Learn more

10-Day Weather Forecast

Advertisements
Track Severe Weather on mobile